Terminal Aerodrome Forecast
Issued by NWS

Home | Current Version | Previous Version | Text Only | Print | Product List | Glossary Off
Versions: 1 2 3 4 5 6 7 8 9 10 11 12 13 14 15 16 17

087
FTUS43 KMPX 290520
TAFAXN
TAF
KAXN 290520Z 2906/3006 07006KT P6SM OVC030
      TEMPO 2906/2908 SCT030
     FM290800 09004KT P6SM SCT030
     FM291600 13005KT P6SM SKC=

USA.gov is the U.S. government's official web portal to all federal, state and local government web resources and services.